createdAt,value
2022-09-28T00:00:30.435Z,3.06
2022-09-28T00:01:06.666Z,4.18
2022-09-28T00:01:39.961Z,7.40
2022-09-28T00:02:12.411Z,3.10
2022-09-28T00:02:45.036Z,4.96
2022-09-28T00:03:17.589Z,21.24
2022-09-28T00:03:51.650Z,5.98
2022-09-28T00:04:23.918Z,19.18
2022-09-28T00:04:56.268Z,7.20
2022-09-28T00:05:28.628Z,5.04
2022-09-28T00:06:02.730Z,5.62
2022-09-28T00:06:35.022Z,5.18
2022-09-28T00:07:07.360Z,19.12
2022-09-28T00:07:39.655Z,6.36
2022-09-28T00:08:12.052Z,6.38
2022-09-28T00:08:44.362Z,5.94
2022-09-28T00:09:17.116Z,17.68
2022-09-28T00:09:49.502Z,4.42
2022-09-28T00:10:24.640Z,14.14
2022-09-28T00:10:57.249Z,6.96
2022-09-28T00:11:29.968Z,5.44
2022-09-28T00:12:02.230Z,5.94
2022-09-28T00:12:34.967Z,7.74
2022-09-28T00:13:08.725Z,5.14
2022-09-28T00:13:42.353Z,4.32
2022-09-28T00:14:15.674Z,4.12
2022-09-28T00:14:47.981Z,7.62
2022-09-28T00:15:20.301Z,25.00
2022-09-28T00:16:02.135Z,9.30
2022-09-28T00:16:35.763Z,8.84
2022-09-28T00:17:08.549Z,4.26
2022-09-28T00:17:40.927Z,9.54
2022-09-28T00:18:13.184Z,5.98
2022-09-28T00:18:46.221Z,25.52
2022-09-28T00:19:18.718Z,17.64
2022-09-28T00:19:51.015Z,6.94
2022-09-28T00:20:23.333Z,23.96
2022-09-28T00:21:01.922Z,4.84
2022-09-28T00:21:35.633Z,3.56
2022-09-28T00:22:08.063Z,3.58
2022-09-28T00:22:40.373Z,3.36
2022-09-28T00:23:12.645Z,3.20
2022-09-28T00:24:04.115Z,7.00
2022-09-28T00:24:36.333Z,4.68
2022-09-28T00:25:08.971Z,34.12
2022-09-28T00:25:41.286Z,11.84
2022-09-28T00:26:13.582Z,18.98
2022-09-28T00:26:50.541Z,39.04
2022-09-28T00:27:22.855Z,8.82
2022-09-28T00:27:55.329Z,6.46
2022-09-28T00:28:27.701Z,10.02
2022-09-28T00:29:01.106Z,17.68
2022-09-28T00:29:34.815Z,22.28
2022-09-28T00:30:07.639Z,5.24
2022-09-28T00:30:39.978Z,4.72
2022-09-28T00:31:13.304Z,31.92
2022-09-28T00:31:46.370Z,10.24
2022-09-28T00:32:19.180Z,7.36
2022-09-28T00:32:52.173Z,27.94
2022-09-28T00:33:24.976Z,31.44
2022-09-28T00:33:58.286Z,54.92
2022-09-28T00:34:32.192Z,11.62
2022-09-28T00:35:04.972Z,14.26
2022-09-28T00:35:37.314Z,12.92
2022-09-28T00:36:09.615Z,9.66
2022-09-28T00:36:44.465Z,12.42
2022-09-28T00:37:21.671Z,34.10
2022-09-28T00:37:53.967Z,71.90
2022-09-28T00:38:27.579Z,53.48
2022-09-28T00:39:03.146Z,17.82
2022-09-28T00:39:36.259Z,12.26
2022-09-28T00:40:08.799Z,34.06
2022-09-28T00:40:41.132Z,49.72
2022-09-28T00:41:13.931Z,21.54
2022-09-28T00:41:46.531Z,5.44
2022-09-28T00:42:22.959Z,8.64
2022-09-28T00:42:55.379Z,20.46
2022-09-28T00:43:28.300Z,11.06
2022-09-28T00:44:19.288Z,36.12
2022-09-28T00:44:52.465Z,71.46
2022-09-28T00:45:26.439Z,28.34
2022-09-28T00:46:00.469Z,11.94
2022-09-28T00:46:33.974Z,16.24
2022-09-28T00:47:12.129Z,60.62
2022-09-28T00:47:51.143Z,21.98
2022-09-28T00:48:24.786Z,74.86
2022-09-28T00:48:59.971Z,69.42
2022-09-28T00:49:34.897Z,17.66
2022-09-28T00:50:11.142Z,11.88
2022-09-28T00:50:43.959Z,32.82
2022-09-28T00:51:16.278Z,17.60
2022-09-28T00:51:49.138Z,63.16
2022-09-28T00:52:30.476Z,68.36
2022-09-28T00:53:10.715Z,57.78
2022-09-28T00:53:44.145Z,28.16
2022-09-28T00:54:16.844Z,30.06
2022-09-28T00:54:51.088Z,45.14
2022-09-28T00:55:28.057Z,31.60
2022-09-28T00:56:07.367Z,52.48
2022-09-28T00:56:40.698Z,44.70
2022-09-28T00:57:13.454Z,46.54
2022-09-28T00:57:47.647Z,20.20
2022-09-28T00:58:21.906Z,42.88
2022-09-28T00:58:55.261Z,38.44
2022-09-28T00:59:28.314Z,17.06
2022-09-28T01:00:01.797Z,14.02
2022-09-28T01:00:34.355Z,32.38
2022-09-28T01:01:06.850Z,15.66
2022-09-28T01:01:39.296Z,10.12
2022-09-28T01:02:12.525Z,10.60
2022-09-28T01:02:45.782Z,5.14
2022-09-28T01:03:18.084Z,24.94
2022-09-28T01:03:50.444Z,27.22
2022-09-28T01:04:26.951Z,2.56
2022-09-28T01:05:03.489Z,3.68
2022-09-28T01:05:36.962Z,2.08
2022-09-28T01:06:09.662Z,2.44
2022-09-28T01:06:43.179Z,5.70
2022-09-28T01:07:16.529Z,2.50
2022-09-28T01:07:48.920Z,2.04
2022-09-28T01:08:22.486Z,3.70
2022-09-28T01:08:59.204Z,3.96
2022-09-28T01:09:32.658Z,7.48
2022-09-28T01:10:06.063Z,3.06
2022-09-28T01:10:39.713Z,3.26
2022-09-28T01:11:12.009Z,4.38
2022-09-28T01:11:44.342Z,2.34
2022-09-28T01:12:16.815Z,2.16
2022-09-28T01:12:49.253Z,3.12
2022-09-28T01:13:23.043Z,1.84
2022-09-28T01:13:56.167Z,1.90
2022-09-28T01:14:28.890Z,2.22
2022-09-28T01:15:02.250Z,2.40
2022-09-28T01:15:37.486Z,2.70
2022-09-28T01:16:19.348Z,2.58
2022-09-28T01:16:56.603Z,2.40
2022-09-28T01:17:54.991Z,2.46
2022-09-28T01:18:31.685Z,2.96
2022-09-28T01:19:22.766Z,1.96
2022-09-28T01:20:13.654Z,4.14
2022-09-28T01:21:08.676Z,9.96
2022-09-28T01:21:54.271Z,33.74
2022-09-28T01:23:06.701Z,9.74
2022-09-28T01:23:57.746Z,86.92
2022-09-28T01:24:48.602Z,103.82
2022-09-28T01:25:30.150Z,79.20
2022-09-28T01:26:20.794Z,108.70
2022-09-28T01:26:56.536Z,111.90
2022-09-28T01:27:32.780Z,124.92
2022-09-28T01:28:07.864Z,119.52
2022-09-28T01:28:43.247Z,120.74
2022-09-28T01:29:30.641Z,138.76
2022-09-28T01:30:08.934Z,146.35
2022-09-28T01:30:55.780Z,143.80
2022-09-28T01:31:30.697Z,160.38
2022-09-28T01:32:26.283Z,143.76
2022-09-28T01:33:10.811Z,153.93
2022-09-28T01:33:53.307Z,162.28
2022-09-28T01:34:28.895Z,173.52
2022-09-28T01:35:08.006Z,168.75
2022-09-28T01:35:47.858Z,166.90
2022-09-28T01:36:25.306Z,147.10
2022-09-28T01:37:01.296Z,152.90
2022-09-28T01:37:42.127Z,161.25
2022-09-28T01:38:33.269Z,151.15
2022-09-28T01:39:11.330Z,167.35
2022-09-28T01:39:47.177Z,148.30
2022-09-28T01:40:21.778Z,145.98
2022-09-28T01:40:55.224Z,156.84
2022-09-28T01:41:29.529Z,141.62
2022-09-28T01:42:05.253Z,147.06
2022-09-28T01:42:39.255Z,148.30
2022-09-28T01:43:20.308Z,144.22
2022-09-28T01:43:55.526Z,155.98
2022-09-28T01:44:30.186Z,134.24
2022-09-28T01:45:04.960Z,143.40
2022-09-28T01:45:41.398Z,150.18
2022-09-28T01:46:13.883Z,135.04
2022-09-28T01:46:48.621Z,146.94
2022-09-28T01:47:23.345Z,151.06
2022-09-28T01:47:58.425Z,144.95
2022-09-28T01:48:37.560Z,155.52
2022-09-28T01:49:13.082Z,147.46
2022-09-28T01:49:47.465Z,145.57
2022-09-28T01:50:22.185Z,136.62
2022-09-28T01:50:57.649Z,144.20
2022-09-28T01:51:36.083Z,150.20
2022-09-28T01:52:28.134Z,151.70
2022-09-28T01:53:11.222Z,150.52
2022-09-28T01:53:47.061Z,155.65
2022-09-28T01:54:29.141Z,152.73
2022-09-28T01:55:20.483Z,155.35
2022-09-28T01:55:55.589Z,151.88
2022-09-28T01:56:31.075Z,150.38
2022-09-28T01:57:09.086Z,146.86
2022-09-28T01:57:45.953Z,145.50
2022-09-28T01:58:30.375Z,144.54
2022-09-28T01:59:12.595Z,144.15
2022-09-28T01:59:49.739Z,156.43
2022-09-28T02:00:24.109Z,154.70
2022-09-28T02:00:59.744Z,157.38
2022-09-28T02:01:40.803Z,151.43
2022-09-28T02:02:16.651Z,155.74
2022-09-28T02:02:54.171Z,156.52
2022-09-28T02:03:39.105Z,150.74
2022-09-28T02:04:14.336Z,158.57
2022-09-28T02:04:51.583Z,148.66
2022-09-28T02:05:27.359Z,165.80
2022-09-28T02:06:01.080Z,156.13
2022-09-28T02:06:39.400Z,153.48
2022-09-28T02:07:18.431Z,155.23
2022-09-28T02:07:56.817Z,150.57
2022-09-28T02:08:32.198Z,155.93
2022-09-28T02:09:12.965Z,168.68
2022-09-28T02:09:55.418Z,173.70
2022-09-28T02:10:32.227Z,160.23
2022-09-28T02:11:14.727Z,173.43
2022-09-28T02:11:49.590Z,187.80
2022-09-28T02:12:42.756Z,210.07
2022-09-28T02:13:17.957Z,161.63
2022-09-28T02:13:53.060Z,145.10
2022-09-28T02:14:26.685Z,147.38
2022-09-28T02:15:04.437Z,140.25
2022-09-28T02:15:47.077Z,143.80
2022-09-28T02:16:25.474Z,142.40
2022-09-28T02:16:58.503Z,150.75
2022-09-28T02:17:34.240Z,138.22
2022-09-28T02:18:07.018Z,140.35
2022-09-28T02:18:39.306Z,134.05
2022-09-28T02:19:13.680Z,139.24
2022-09-28T02:19:46.314Z,138.38
2022-09-28T02:20:19.084Z,135.13
2022-09-28T02:20:56.478Z,134.24
2022-09-28T02:21:34.189Z,145.20
2022-09-28T02:22:25.066Z,142.02
2022-09-28T02:22:59.964Z,144.78
2022-09-28T02:23:35.676Z,144.07
2022-09-28T02:24:10.901Z,144.43
2022-09-28T02:24:52.968Z,132.36
2022-09-28T02:25:39.216Z,144.25
2022-09-28T02:26:14.181Z,131.28
2022-09-28T02:26:48.349Z,145.46
2022-09-28T02:27:41.076Z,147.24
2022-09-28T02:28:13.802Z,145.14
2022-09-28T02:28:46.290Z,141.60
2022-09-28T02:29:18.759Z,149.64
2022-09-28T02:29:51.212Z,138.44
2022-09-28T02:30:23.595Z,134.82
2022-09-28T02:30:55.943Z,137.98
2022-09-28T02:31:28.661Z,135.30
2022-09-28T02:32:01.194Z,139.82
2022-09-28T02:32:35.431Z,124.26
2022-09-28T02:33:19.761Z,137.90
2022-09-28T02:33:52.497Z,138.32
2022-09-28T02:34:24.843Z,146.78
2022-09-28T02:34:57.254Z,134.42
2022-09-28T02:35:30.317Z,137.54
2022-09-28T02:36:03.949Z,131.52
2022-09-28T02:36:40.694Z,134.02
2022-09-28T02:37:13.141Z,144.68
2022-09-28T02:37:46.126Z,126.74
2022-09-28T02:38:19.407Z,129.22
2022-09-28T02:38:52.225Z,137.26
2022-09-28T02:39:25.250Z,135.40
2022-09-28T02:39:57.587Z,132.00
2022-09-28T02:40:31.996Z,131.52
2022-09-28T02:41:09.580Z,138.32
2022-09-28T02:41:47.438Z,134.38
2022-09-28T02:42:43.934Z,134.88
2022-09-28T02:43:16.598Z,148.65
2022-09-28T02:44:04.338Z,147.76
2022-09-28T02:44:37.911Z,161.02
2022-09-28T02:45:36.839Z,137.24
2022-09-28T02:46:16.029Z,151.50
2022-09-28T02:47:10.540Z,137.58
2022-09-28T02:48:01.561Z,155.42
2022-09-28T02:48:43.567Z,150.45
2022-09-28T02:49:32.488Z,154.16
2022-09-28T02:50:04.958Z,154.56
2022-09-28T02:50:56.318Z,150.90
2022-09-28T02:51:37.027Z,159.94
2022-09-28T02:52:47.061Z,152.64
2022-09-28T02:53:22.316Z,145.06
2022-09-28T02:53:59.897Z,150.96
2022-09-28T02:54:50.709Z,152.95
2022-09-28T02:55:32.009Z,152.48
2022-09-28T02:56:18.538Z,160.52
2022-09-28T02:57:10.508Z,155.43
2022-09-28T02:57:42.880Z,159.85
2022-09-28T02:58:41.665Z,144.10
2022-09-28T02:59:29.944Z,153.10
2022-09-28T03:00:09.419Z,158.78
2022-09-28T03:00:45.447Z,160.52
2022-09-28T03:01:23.483Z,152.52
2022-09-28T03:02:07.765Z,144.30
2022-09-28T03:02:47.280Z,145.90
2022-09-28T03:03:19.644Z,145.22
2022-09-28T03:03:58.194Z,152.18
2022-09-28T03:04:40.033Z,153.57
2022-09-28T03:05:30.227Z,154.40
2022-09-28T03:06:11.462Z,164.10
2022-09-28T03:07:00.978Z,155.40
2022-09-28T03:07:35.670Z,155.43
2022-09-28T03:08:15.717Z,159.23
2022-09-28T03:08:56.986Z,159.38
2022-09-28T03:09:47.518Z,151.40
2022-09-28T03:10:24.196Z,162.50
2022-09-28T03:10:59.213Z,149.10
2022-09-28T03:11:37.268Z,163.27
2022-09-28T03:12:11.532Z,151.20
2022-09-28T03:12:45.490Z,135.38
2022-09-28T03:13:18.350Z,153.20
2022-09-28T03:13:51.980Z,147.98
2022-09-28T03:14:26.873Z,144.22
2022-09-28T03:15:06.197Z,148.12
2022-09-28T03:15:38.511Z,147.85
2022-09-28T03:16:12.771Z,132.50
2022-09-28T03:16:46.750Z,142.00
2022-09-28T03:17:20.935Z,143.66
2022-09-28T03:17:53.506Z,143.34
2022-09-28T03:18:26.248Z,143.70
2022-09-28T03:18:58.714Z,150.66
2022-09-28T03:19:32.479Z,146.75
2022-09-28T03:20:06.065Z,145.36
2022-09-28T03:20:38.895Z,141.20
2022-09-28T03:21:12.285Z,143.04
2022-09-28T03:21:44.873Z,141.45
2022-09-28T03:22:17.291Z,148.92
2022-09-28T03:23:06.429Z,143.28
2022-09-28T03:23:42.426Z,144.75
2022-09-28T03:24:15.065Z,138.07
2022-09-28T03:24:47.351Z,134.82
2022-09-28T03:25:19.879Z,138.18
2022-09-28T03:25:52.404Z,134.52
2022-09-28T03:26:25.021Z,140.48
2022-09-28T03:26:57.480Z,135.76
2022-09-28T03:27:29.808Z,135.28
2022-09-28T03:28:02.176Z,131.16
2022-09-28T03:28:36.792Z,139.82
2022-09-28T03:29:10.047Z,123.93
2022-09-28T03:29:43.210Z,136.68
2022-09-28T03:30:15.994Z,132.35
2022-09-28T03:30:51.338Z,139.20
2022-09-28T03:31:24.048Z,135.55
2022-09-28T03:31:56.673Z,130.75
2022-09-28T03:32:28.985Z,128.15
2022-09-28T03:33:02.719Z,131.77
2022-09-28T03:33:37.268Z,143.60
2022-09-28T03:34:09.798Z,137.88
2022-09-28T03:34:42.637Z,140.75
2022-09-28T03:35:15.376Z,135.82
2022-09-28T03:35:48.523Z,130.35
2022-09-28T03:36:21.574Z,134.20
2022-09-28T03:36:54.062Z,122.74
2022-09-28T03:37:27.458Z,122.38
2022-09-28T03:38:00.382Z,136.45
2022-09-28T03:38:35.055Z,139.63
2022-09-28T03:39:07.401Z,135.20
2022-09-28T03:39:39.944Z,135.38
2022-09-28T03:40:12.477Z,132.20
2022-09-28T03:40:45.318Z,142.93
2022-09-28T03:41:17.821Z,132.82
2022-09-28T03:41:50.336Z,130.38
2022-09-28T03:42:25.020Z,132.43
2022-09-28T03:42:57.418Z,137.45
2022-09-28T03:43:31.428Z,133.55
2022-09-28T03:44:05.995Z,140.77
2022-09-28T03:44:39.203Z,135.65
2022-09-28T03:45:11.569Z,142.55
2022-09-28T03:45:44.259Z,137.75
2022-09-28T03:46:16.747Z,149.23
2022-09-28T03:46:53.662Z,147.50
2022-09-28T03:47:25.993Z,140.80
2022-09-28T03:47:58.410Z,143.98
2022-09-28T03:48:32.942Z,145.80
2022-09-28T03:49:05.556Z,148.00
2022-09-28T03:49:38.114Z,145.32
2022-09-28T03:50:10.620Z,128.60
2022-09-28T03:50:42.950Z,127.74
2022-09-28T03:51:15.497Z,142.14
2022-09-28T03:51:47.876Z,136.05
2022-09-28T03:52:20.148Z,140.56
2022-09-28T03:52:52.482Z,133.16
2022-09-28T03:53:24.823Z,150.07
2022-09-28T03:53:57.414Z,143.98
2022-09-28T03:54:30.170Z,143.30
2022-09-28T03:55:02.517Z,130.07
2022-09-28T03:55:35.140Z,147.98
2022-09-28T03:56:08.151Z,131.56
2022-09-28T03:56:41.058Z,129.35
2022-09-28T03:57:13.419Z,141.15
2022-09-28T03:57:45.819Z,144.15
2022-09-28T03:58:18.235Z,139.50
2022-09-28T03:58:50.475Z,140.18
2022-09-28T03:59:23.076Z,149.20
2022-09-28T03:59:55.360Z,156.52
2022-09-28T04:00:28.351Z,137.62
2022-09-28T04:01:05.067Z,148.20
2022-09-28T04:01:37.786Z,133.88
2022-09-28T04:02:10.464Z,138.13
2022-09-28T04:02:42.730Z,135.00
2022-09-28T04:03:15.145Z,136.73
2022-09-28T04:03:48.238Z,132.00
2022-09-28T04:04:20.520Z,141.72
2022-09-28T04:04:52.857Z,125.18
2022-09-28T04:05:25.681Z,134.00
2022-09-28T04:05:58.430Z,134.70
2022-09-28T04:06:30.856Z,130.94
2022-09-28T04:07:03.195Z,125.15
2022-09-28T04:07:35.524Z,135.45
2022-09-28T04:08:08.134Z,127.64
2022-09-28T04:08:40.534Z,130.27
2022-09-28T04:09:14.449Z,130.57
2022-09-28T04:09:47.663Z,142.07
2022-09-28T04:10:19.981Z,134.40
2022-09-28T04:10:52.401Z,148.58
2022-09-28T04:11:24.896Z,138.02
2022-09-28T04:12:03.871Z,145.10
2022-09-28T04:12:38.232Z,143.38
2022-09-28T04:13:11.333Z,144.68
2022-09-28T04:13:47.636Z,141.78
2022-09-28T04:14:20.184Z,148.56
2022-09-28T04:14:53.316Z,145.64
2022-09-28T04:15:25.757Z,144.85
2022-09-28T04:15:59.525Z,146.14
2022-09-28T04:16:33.896Z,143.56
2022-09-28T04:17:13.534Z,145.52
2022-09-28T04:17:46.244Z,140.30
2022-09-28T04:18:33.649Z,155.95
2022-09-28T04:19:26.975Z,161.15
2022-09-28T04:20:18.258Z,161.05
2022-09-28T04:21:09.291Z,162.05
2022-09-28T04:22:06.179Z,164.85
2022-09-28T04:22:38.582Z,152.70
2022-09-28T04:23:10.914Z,149.48
2022-09-28T04:23:43.742Z,146.80
2022-09-28T04:24:17.003Z,156.27
2022-09-28T04:24:49.298Z,144.76
2022-09-28T04:25:21.945Z,152.40
2022-09-28T04:25:54.889Z,149.57
2022-09-28T04:26:28.131Z,151.24
2022-09-28T04:27:20.516Z,152.43
2022-09-28T04:28:12.854Z,158.30
2022-09-28T04:29:06.809Z,153.20
2022-09-28T04:29:44.008Z,166.57
2022-09-28T04:30:17.677Z,163.27
2022-09-28T04:30:51.390Z,151.04
2022-09-28T04:31:24.836Z,139.78
2022-09-28T04:31:57.278Z,154.57
2022-09-28T04:32:38.470Z,149.45
2022-09-28T04:33:10.794Z,134.38
2022-09-28T04:33:43.341Z,147.98
2022-09-28T04:34:17.706Z,143.52
2022-09-28T04:34:50.076Z,145.30
2022-09-28T04:35:22.386Z,140.38
2022-09-28T04:35:54.917Z,154.27
2022-09-28T04:36:27.240Z,154.90
2022-09-28T04:36:59.677Z,159.40
2022-09-28T04:37:32.149Z,159.80
2022-09-28T04:38:04.545Z,150.25
2022-09-28T04:38:52.365Z,166.60
2022-09-28T04:39:26.230Z,161.38
2022-09-28T04:40:01.256Z,161.60
2022-09-28T04:40:33.773Z,149.60
2022-09-28T04:41:06.293Z,144.30
2022-09-28T04:41:38.774Z,152.82
2022-09-28T04:42:12.209Z,153.05
2022-09-28T04:42:44.949Z,144.95
2022-09-28T04:43:17.470Z,145.65
2022-09-28T04:43:50.158Z,154.73
2022-09-28T04:44:22.496Z,146.55
2022-09-28T04:44:59.100Z,150.94
2022-09-28T04:45:31.802Z,148.65
2022-09-28T04:46:10.381Z,144.43
2022-09-28T04:46:48.815Z,141.93
2022-09-28T04:47:35.948Z,152.85
2022-09-28T04:48:25.481Z,163.13
2022-09-28T04:49:15.101Z,145.13
2022-09-28T04:50:39.071Z,163.10
2022-09-28T04:51:11.775Z,157.93
2022-09-28T04:51:44.073Z,157.48
2022-09-28T04:52:18.502Z,154.15
2022-09-28T04:52:53.933Z,142.57
2022-09-28T04:53:27.237Z,151.05
2022-09-28T04:53:59.699Z,141.15
2022-09-28T04:54:32.178Z,142.75
2022-09-28T04:55:05.628Z,148.07
2022-09-28T04:55:39.236Z,144.30
2022-09-28T04:56:12.809Z,144.65
2022-09-28T04:56:45.851Z,149.55
2022-09-28T04:57:18.342Z,154.57
2022-09-28T04:57:50.752Z,148.12
2022-09-28T04:58:23.510Z,141.82
2022-09-28T04:58:56.279Z,141.35
2022-09-28T04:59:28.632Z,130.40
2022-09-28T05:00:01.075Z,149.22
2022-09-28T05:00:36.118Z,146.32
2022-09-28T05:01:38.018Z,142.08
2022-09-28T05:02:29.773Z,149.75
2022-09-28T05:03:21.366Z,159.40
2022-09-28T05:04:14.290Z,177.07
2022-09-28T05:05:21.820Z,176.50
2022-09-28T05:06:15.708Z,167.10
2022-09-28T05:06:52.856Z,167.23
2022-09-28T05:07:26.485Z,163.10
2022-09-28T05:07:59.553Z,149.40
2022-09-28T05:08:31.997Z,158.50
2022-09-28T05:09:05.121Z,154.38
2022-09-28T05:09:38.746Z,167.30
2022-09-28T05:10:11.338Z,154.68
2022-09-28T05:10:45.632Z,151.25
2022-09-28T05:11:20.260Z,161.00
2022-09-28T05:11:53.397Z,171.07
2022-09-28T05:12:27.783Z,168.02
2022-09-28T05:13:01.711Z,165.20
2022-09-28T05:13:35.996Z,163.38
2022-09-28T05:14:08.702Z,158.18
2022-09-28T05:14:41.472Z,160.57
2022-09-28T05:15:13.789Z,149.00
2022-09-28T05:15:46.172Z,161.75
2022-09-28T05:16:21.009Z,172.73
2022-09-28T05:17:16.228Z,193.63
2022-09-28T05:18:04.628Z,170.98
2022-09-28T05:18:54.932Z,177.52
2022-09-28T05:19:27.454Z,156.43
2022-09-28T05:20:05.986Z,159.00
2022-09-28T05:20:42.322Z,153.07
2022-09-28T05:21:15.999Z,162.18
2022-09-28T05:21:49.307Z,156.10
2022-09-28T05:22:22.035Z,164.48
2022-09-28T05:22:54.401Z,156.50
2022-09-28T05:23:27.365Z,157.98
2022-09-28T05:24:07.681Z,160.52
2022-09-28T05:24:42.957Z,159.48
2022-09-28T05:25:15.492Z,151.56
2022-09-28T05:26:06.738Z,167.00
2022-09-28T05:26:41.278Z,158.15
2022-09-28T05:27:15.500Z,153.04
2022-09-28T05:27:57.338Z,156.70
2022-09-28T05:28:45.107Z,156.88
2022-09-28T05:29:43.355Z,172.35
2022-09-28T05:30:47.821Z,165.82
2022-09-28T05:31:32.670Z,167.43
2022-09-28T05:32:25.311Z,170.07
2022-09-28T05:33:10.718Z,171.00
2022-09-28T05:33:47.499Z,165.80
2022-09-28T05:34:19.874Z,156.42
2022-09-28T05:34:52.218Z,159.80
2022-09-28T05:35:30.555Z,158.43
2022-09-28T05:36:03.788Z,150.27
2022-09-28T05:36:37.273Z,158.98
2022-09-28T05:37:10.346Z,157.07
2022-09-28T05:37:43.061Z,141.27
2022-09-28T05:38:15.343Z,149.70
2022-09-28T05:38:49.076Z,149.90
2022-09-28T05:39:21.495Z,145.07
2022-09-28T05:39:53.850Z,160.10
2022-09-28T05:40:26.350Z,160.32
2022-09-28T05:41:01.161Z,147.50
2022-09-28T05:41:35.686Z,154.38
2022-09-28T05:42:08.416Z,143.35
2022-09-28T05:42:41.155Z,146.38
2022-09-28T05:43:13.546Z,145.78
2022-09-28T05:43:46.041Z,147.94
2022-09-28T05:44:18.692Z,155.90
2022-09-28T05:44:53.630Z,152.88
2022-09-28T05:45:25.974Z,159.68
2022-09-28T05:45:59.216Z,153.30
2022-09-28T05:46:31.807Z,156.04
2022-09-28T05:47:06.176Z,145.48
2022-09-28T05:47:39.711Z,147.48
2022-09-28T05:48:12.255Z,148.98
2022-09-28T05:48:44.603Z,140.65
2022-09-28T05:49:17.429Z,148.65
2022-09-28T05:49:49.787Z,141.60
2022-09-28T05:50:22.142Z,145.43
2022-09-28T05:50:54.843Z,141.22
2022-09-28T05:51:27.132Z,145.16
2022-09-28T05:51:59.974Z,142.16
2022-09-28T05:52:32.353Z,144.08
2022-09-28T05:53:06.077Z,152.30
2022-09-28T05:53:38.526Z,140.76
2022-09-28T05:54:11.000Z,136.82
2022-09-28T05:54:47.255Z,154.52
2022-09-28T05:55:20.068Z,138.94
2022-09-28T05:55:52.534Z,146.70
2022-09-28T05:56:24.965Z,156.27
2022-09-28T05:56:58.317Z,134.30
2022-09-28T05:57:32.212Z,141.38
2022-09-28T05:58:06.011Z,143.20
2022-09-28T05:58:38.570Z,148.27
2022-09-28T05:59:12.303Z,149.86
2022-09-28T05:59:44.942Z,137.10
2022-09-28T06:00:17.445Z,143.20
2022-09-28T06:00:57.681Z,150.63
2022-09-28T06:01:30.052Z,140.52
2022-09-28T06:02:05.160Z,146.48
2022-09-28T06:02:37.751Z,146.80
2022-09-28T06:03:11.820Z,144.52
2022-09-28T06:03:44.212Z,141.78
2022-09-28T06:04:16.977Z,146.00
2022-09-28T06:04:51.371Z,151.13
2022-09-28T06:05:24.333Z,143.00
2022-09-28T06:05:56.727Z,154.13
2022-09-28T06:06:30.290Z,149.68
2022-09-28T06:07:02.683Z,164.15
2022-09-28T06:07:35.110Z,152.90
2022-09-28T06:08:08.596Z,157.60
2022-09-28T06:08:44.020Z,150.26
2022-09-28T06:09:31.856Z,156.35
2022-09-28T06:10:07.253Z,143.30
2022-09-28T06:10:46.403Z,143.85
2022-09-28T06:11:19.926Z,159.73
2022-09-28T06:11:53.235Z,158.73
2022-09-28T06:12:45.766Z,179.00
2022-09-28T06:13:20.971Z,161.60
2022-09-28T06:13:54.758Z,160.45
2022-09-28T06:14:27.641Z,164.26
2022-09-28T06:15:01.477Z,154.38
2022-09-28T06:15:34.584Z,155.52
2022-09-28T06:16:10.727Z,142.20
2022-09-28T06:16:44.049Z,164.00
2022-09-28T06:17:18.101Z,152.12
2022-09-28T06:17:58.718Z,146.68
2022-09-28T06:18:41.816Z,168.50
2022-09-28T06:19:16.942Z,173.86
2022-09-28T06:20:01.690Z,159.96
2022-09-28T06:20:52.446Z,175.18
2022-09-28T06:21:36.235Z,174.65
2022-09-28T06:22:09.345Z,167.35
2022-09-28T06:22:52.609Z,151.32
2022-09-28T06:23:25.038Z,144.56
2022-09-28T06:23:57.320Z,160.44
2022-09-28T06:24:30.509Z,151.40
2022-09-28T06:25:03.221Z,158.14
2022-09-28T06:25:35.691Z,155.38
2022-09-28T06:26:08.267Z,151.48
2022-09-28T06:26:40.831Z,162.96
2022-09-28T06:27:13.999Z,156.42
2022-09-28T06:28:06.670Z,151.94
2022-09-28T06:28:39.183Z,163.92
2022-09-28T06:29:18.671Z,155.66
2022-09-28T06:29:52.276Z,165.18
2022-09-28T06:30:27.504Z,173.80
2022-09-28T06:31:00.907Z,147.14
2022-09-28T06:31:34.018Z,152.92
2022-09-28T06:32:07.770Z,148.86
2022-09-28T06:32:42.302Z,153.92
2022-09-28T06:33:15.605Z,138.10
2022-09-28T06:33:48.411Z,147.50
2022-09-28T06:34:21.648Z,150.30
2022-09-28T06:34:56.363Z,143.00
2022-09-28T06:35:31.145Z,145.70
2022-09-28T06:36:03.492Z,149.23
2022-09-28T06:36:35.942Z,153.78
2022-09-28T06:37:08.474Z,148.02
2022-09-28T06:37:44.568Z,141.76
2022-09-28T06:38:17.003Z,144.18
2022-09-28T06:38:49.405Z,148.30
2022-09-28T06:39:22.538Z,156.56
2022-09-28T06:39:55.986Z,153.42
2022-09-28T06:40:28.976Z,147.30
2022-09-28T06:41:01.873Z,136.72
2022-09-28T06:41:34.338Z,152.16
2022-09-28T06:42:19.209Z,149.80
2022-09-28T06:43:24.342Z,154.16
2022-09-28T06:44:15.600Z,164.82
2022-09-28T06:45:07.182Z,147.98
2022-09-28T06:45:55.696Z,150.77
2022-09-28T06:46:52.246Z,148.26
2022-09-28T06:47:46.456Z,140.16
2022-09-28T06:48:35.323Z,156.26
2022-09-28T06:49:09.777Z,161.46
2022-09-28T06:50:12.474Z,169.78
2022-09-28T06:51:16.774Z,226.95
2022-09-28T06:52:06.771Z,160.66
2022-09-28T06:53:02.162Z,155.36
2022-09-28T06:53:54.107Z,156.06
2022-09-28T06:54:45.175Z,176.20
2022-09-28T06:55:46.367Z,157.24
2022-09-28T06:56:19.825Z,144.94
2022-09-28T06:56:53.046Z,149.56
2022-09-28T06:57:25.828Z,165.70
2022-09-28T06:58:05.567Z,172.32
2022-09-28T06:58:38.110Z,177.32
2022-09-28T06:59:10.810Z,126.26
2022-09-28T06:59:44.013Z,123.14
2022-09-28T07:00:16.453Z,117.56
2022-09-28T07:00:52.095Z,110.40
2022-09-28T07:01:24.623Z,108.76
2022-09-28T07:02:32.264Z,119.82
2022-09-28T07:03:23.216Z,155.42
2022-09-28T07:03:58.335Z,157.74
2022-09-28T07:04:48.987Z,132.28
2022-09-28T07:05:44.249Z,105.98
2022-09-28T07:06:47.537Z,120.28
2022-09-28T07:07:43.050Z,122.62
2022-09-28T07:08:28.910Z,123.92
2022-09-28T07:09:26.908Z,129.02
2022-09-28T07:10:24.827Z,116.86
2022-09-28T07:11:27.110Z,102.56
2022-09-28T07:12:15.831Z,112.02
2022-09-28T07:12:53.953Z,116.76
2022-09-28T07:13:49.930Z,115.04
2022-09-28T07:14:46.277Z,117.26
2022-09-28T07:15:18.095Z,113.30
2022-09-28T07:15:57.832Z,116.16
2022-09-28T07:16:54.275Z,115.05
2022-09-28T07:17:23.272Z,110.34
2022-09-28T07:18:03.086Z,107.72
2022-09-28T07:18:36.518Z,117.94
2022-09-28T07:19:09.891Z,110.32
2022-09-28T07:19:42.272Z,97.26
2022-09-28T07:20:19.163Z,120.20
2022-09-28T07:20:54.703Z,117.02
2022-09-28T07:21:30.455Z,111.48
2022-09-28T07:22:06.416Z,104.08
2022-09-28T07:22:43.344Z,113.60
2022-09-28T07:23:20.220Z,122.14
2022-09-28T07:24:12.648Z,123.96
2022-09-28T07:25:03.639Z,126.32
2022-09-28T07:26:08.353Z,115.28
2022-09-28T07:27:07.626Z,134.08
2022-09-28T07:28:12.249Z,130.18
2022-09-28T07:29:03.702Z,138.46
2022-09-28T07:29:42.591Z,132.85
2022-09-28T07:30:29.702Z,132.72
2022-09-28T07:31:25.442Z,179.00
2022-09-28T07:32:40.539Z,171.22
2022-09-28T07:33:32.959Z,168.24
2022-09-28T07:34:25.514Z,161.60
2022-09-28T07:35:09.886Z,192.90
2022-09-28T07:35:52.759Z,142.26
2022-09-28T07:36:27.209Z,154.28
2022-09-28T07:36:59.840Z,181.22
2022-09-28T07:37:32.324Z,196.26
2022-09-28T07:38:05.349Z,155.44
2022-09-28T07:38:38.572Z,147.52
2022-09-28T07:39:12.351Z,142.30
2022-09-28T07:40:04.042Z,134.56
2022-09-28T07:40:57.351Z,135.88
2022-09-28T07:41:33.191Z,145.14
2022-09-28T07:42:08.178Z,139.22
2022-09-28T07:42:41.393Z,143.76
2022-09-28T07:43:17.060Z,139.40
2022-09-28T07:43:50.417Z,129.00
2022-09-28T07:44:22.898Z,134.70
2022-09-28T07:44:59.251Z,142.58
2022-09-28T07:45:34.474Z,128.64
2022-09-28T07:46:09.627Z,140.56
2022-09-28T07:46:43.548Z,136.94
2022-09-28T07:47:35.351Z,141.14
2022-09-28T07:48:26.341Z,141.94
2022-09-28T07:49:28.004Z,122.76
2022-09-28T07:50:21.504Z,131.42
2022-09-28T07:51:22.991Z,129.74